CDT,Max TemperatureF,Mean TemperatureF,Min TemperatureF,Max Dew PointF,MeanDew PointF,Min DewpointF,Max Humidity, Mean Humidity, Min Humidity, Max Sea Level PressureIn, Mean Sea Level PressureIn, Min Sea Level PressureIn, Max VisibilityMiles, Mean VisibilityMiles, Min VisibilityMiles, Max Wind SpeedMPH, Mean Wind SpeedMPH, Max Gust SpeedMPH,PrecipitationIn, CloudCover, Events, WindDirDegrees
2013-8-1,82,74,66,72,65,61,94,78,48,30.06,30.02,29.99,10,8,1,8,2,,0.00,1,Rain,330
2013-8-2,87,76,64,84,68,63,94,82,58,30.03,30.00,29.94,10,9,4,15,3,21,0.00,1,Rain,204
2013-8-3,84,76,68,73,69,64,94,82,70,30.09,30.01,29.94,10,9,4,9,2,,0.01,3,,342
2013-8-4,78,69,60,66,61,57,94,76,47,30.19,30.14,30.09,10,10,10,8,3,,0.00,0,,30
2013-8-5,78,68,59,66,63,57,94,81,57,30.12,30.03,29.94,10,10,7,13,3,16,0.00,4,,175
2013-8-6,84,76,69,75,69,66,94,85,70,29.96,29.92,29.89,10,8,1,10,2,,0.00,6,Rain,206
2013-8-7,111,90,69,90,71,66,100,86,34,29.94,29.90,29.86,10,8,1,8,3,,0.00,2,,213
2013-8-8,118,92,66,75,70,64,94,89,52,29.96,29.92,29.88,10,7,0,8,1,,0.00,5,Fog-Rain,205
2013-8-9,118,94,71,84,69,66,94,79,28,30.06,29.99,29.93,10,8,2,8,2,,0.00,4,Rain,5
2013-8-10,84,76,69,68,64,57,83,65,42,30.13,30.09,30.05,10,10,10,8,3,,0.00,4,Rain,359
2013-8-11,84,74,64,64,61,55,83,64,39,30.15,30.11,30.06,10,10,10,8,3,,0.00,0,,341
2013-8-12,84,75,66,72,67,61,88,79,62,30.07,29.98,29.91,10,8,2,9,1,,1.32,3,Rain-Thunderstorm,178
2013-8-13,78,70,62,66,62,52,88,74,57,30.12,30.00,29.92,10,8,0,15,3,20,0.01,1,Fog,360
2013-8-14,71,62,53,52,50,46,82,64,41,30.20,30.16,30.12,10,10,10,14,6,18,0.00,1,,22
2013-8-15,73,63,53,55,51,48,82,66,46,30.17,30.13,30.09,10,10,10,9,4,,0.00,1,,31
2013-8-16,77,66,55,57,54,50,88,68,47,30.15,30.12,30.09,10,10,10,10,4,,0.00,1,,24
2013-8-17,77,70,62,64,59,55,78,72,57,30.20,30.14,30.11,10,10,5,9,4,,0.00,4,Rain-Thunderstorm,22
2013-8-18,82,73,64,64,62,59,88,71,48,30.17,30.12,30.08,10,10,7,8,3,,0.01,3,Rain,59
2013-8-19,84,72,60,66,62,57,88,70,45,30.14,30.10,30.05,10,7,1,7,1,,0.00,1,,93
2013-8-20,86,75,64,70,65,61,88,71,45,30.14,30.09,30.05,10,8,1,4,0,,0.00,1,,146
2013-8-21,87,76,66,70,65,63,88,70,43,30.16,30.10,30.06,10,9,2,8,1,,0.00,0,,235
2013-8-22,89,78,66,73,67,63,88,72,46,30.12,30.08,30.01,10,8,2,8,1,,0.00,1,Rain,261
2013-8-23,86,78,69,70,67,64,83,71,51,30.11,30.08,30.04,10,9,5,9,4,,0.00,1,Rain-Thunderstorm,25
2013-8-24,87,76,66,68,62,57,88,66,35,30.23,30.19,30.12,10,9,4,8,3,,0.00,0,,70
2013-8-25,89,76,62,70,62,55,83,65,33,30.29,30.24,30.20,10,10,5,6,1,,0.00,0,,127
2013-8-26,89,80,71,72,69,66,88,72,52,30.25,30.18,30.10,10,7,2,9,3,,0.00,1,,208
2013-8-27,91,81,71,73,70,66,83,72,49,30.12,30.06,30.01,10,8,3,8,3,,0.00,0,,224
2013-8-28,91,80,69,72,66,63,88,64,38,30.04,30.01,29.98,10,9,2,12,3,16,0.00,0,,253
2013-8-29,91,80,69,77,71,64,89,74,59,30.03,30.00,29.96,10,8,3,8,1,,0.00,1,,37
2013-8-30,95,83,71,73,70,66,89,67,41,29.98,29.92,29.85,10,7,0,9,2,,0.00,1,,232
2013-8-31,95,83,71,75,70,64,89,67,39,29.87,29.82,29.74,10,9,2,15,4,29,0.20,1,Rain-Thunderstorm,219